createdAt,value
2023-02-17T00:04:34.906Z,1.46
2023-02-17T00:09:38.467Z,1.26
2023-02-17T00:14:41.931Z,1.06
2023-02-17T00:19:45.789Z,0.90
2023-02-17T00:24:49.160Z,0.85
2023-02-17T00:29:52.577Z,0.84
2023-02-17T00:34:57.145Z,0.69
2023-02-17T00:40:00.257Z,0.79
2023-02-17T00:45:03.908Z,0.95
2023-02-17T00:50:09.449Z,0.82
2023-02-17T00:55:13.020Z,0.75
2023-02-17T01:00:17.119Z,0.92
2023-02-17T01:05:21.212Z,1.22
2023-02-17T01:10:24.957Z,1.44
2023-02-17T01:15:27.927Z,1.36
2023-02-17T01:20:31.834Z,1.22
2023-02-17T01:25:40.007Z,1.25
2023-02-17T01:30:43.931Z,1.12
2023-02-17T01:35:49.967Z,1.01
2023-02-17T01:40:53.782Z,1.02
2023-02-17T01:46:03.542Z,0.95
2023-02-17T01:51:15.608Z,0.78
2023-02-17T01:56:19.522Z,0.59
2023-02-17T02:01:23.557Z,0.58
2023-02-17T02:06:29.075Z,0.61
2023-02-17T02:11:32.742Z,0.64
2023-02-17T02:16:39.557Z,0.64
2023-02-17T02:22:01.724Z,0.65
2023-02-17T02:27:39.432Z,0.69
2023-02-17T02:33:08.118Z,0.62
2023-02-17T02:38:20.218Z,0.61
2023-02-17T02:43:25.295Z,0.64
2023-02-17T02:48:28.939Z,0.58
2023-02-17T02:53:43.105Z,0.66
2023-02-17T02:59:17.433Z,0.49
2023-02-17T03:04:36.623Z,0.38
2023-02-17T03:09:42.655Z,0.42
2023-02-17T03:14:54.066Z,0.35
2023-02-17T03:20:00.684Z,0.41
2023-02-17T03:25:04.802Z,0.47
2023-02-17T03:30:09.372Z,0.43
2023-02-17T03:35:14.166Z,0.42
2023-02-17T03:40:17.913Z,0.39
2023-02-17T03:45:22.048Z,0.41
2023-02-17T03:50:25.687Z,0.24
2023-02-17T03:55:29.340Z,0.39
2023-02-17T04:00:32.807Z,0.37
2023-02-17T04:05:36.385Z,0.36
2023-02-17T04:10:40.108Z,0.39
2023-02-17T04:15:43.852Z,0.30
2023-02-17T04:20:49.567Z,0.24
2023-02-17T04:25:53.254Z,-0.01
2023-02-17T04:30:58.926Z,0.03
2023-02-17T04:36:02.105Z,0.00
2023-02-17T04:41:06.734Z,0.08
2023-02-17T04:46:12.125Z,0.11
2023-02-17T04:51:15.774Z,0.02
2023-02-17T04:56:19.534Z,-0.17
2023-02-17T05:01:23.191Z,-0.08
2023-02-17T05:06:27.045Z,-0.07
2023-02-17T05:11:31.735Z,-0.08
2023-02-17T05:16:35.407Z,-0.02
2023-02-17T05:21:38.569Z,-0.03
2023-02-17T05:26:41.639Z,-0.06
2023-02-17T05:31:45.224Z,-0.07
2023-02-17T05:36:48.426Z,-0.07
2023-02-17T05:41:51.939Z,-0.10
2023-02-17T05:46:55.538Z,-0.12
2023-02-17T05:51:59.260Z,-0.19
2023-02-17T05:57:02.883Z,-0.04
2023-02-17T06:02:06.721Z,0.09
2023-02-17T06:07:10.322Z,0.16
2023-02-17T06:12:13.909Z,0.40
2023-02-17T06:17:17.077Z,0.60
2023-02-17T06:22:20.173Z,0.85
2023-02-17T06:27:23.691Z,1.12
2023-02-17T06:32:28.359Z,1.46
2023-02-17T06:37:31.984Z,1.83
2023-02-17T06:42:35.863Z,2.66
2023-02-17T06:47:39.291Z,3.94
2023-02-17T06:52:42.435Z,4.36
2023-02-17T06:57:45.713Z,5.04
2023-02-17T07:02:49.007Z,6.18
2023-02-17T07:07:54.026Z,7.25
2023-02-17T07:12:57.207Z,8.02
2023-02-17T07:18:02.408Z,8.94
2023-02-17T07:23:05.584Z,10.00
2023-02-17T07:28:08.967Z,10.89
2023-02-17T07:33:12.608Z,11.82
2023-02-17T07:38:16.259Z,12.11
2023-02-17T07:43:19.328Z,12.93
2023-02-17T07:48:23.587Z,12.91
2023-02-17T07:53:27.297Z,12.24
2023-02-17T07:58:33.444Z,13.69
2023-02-17T08:03:37.129Z,17.33
2023-02-17T08:08:59.544Z,16.01
2023-02-17T08:14:03.041Z,14.84
2023-02-17T08:19:07.544Z,15.03
2023-02-17T08:24:11.404Z,15.37
2023-02-17T08:29:15.341Z,15.54
2023-02-17T08:34:18.673Z,17.09
2023-02-17T08:39:23.337Z,16.45
2023-02-17T08:44:27.636Z,18.03
2023-02-17T08:49:32.916Z,18.65
2023-02-17T08:54:37.105Z,18.71
2023-02-17T08:59:40.753Z,16.16
2023-02-17T09:04:44.544Z,18.07
2023-02-17T09:09:47.819Z,17.97
2023-02-17T09:14:51.525Z,17.68
2023-02-17T09:19:54.992Z,17.60
2023-02-17T09:24:58.769Z,17.03
2023-02-17T09:30:02.972Z,17.22
2023-02-17T09:35:07.246Z,17.18
2023-02-17T09:40:20.258Z,17.10
2023-02-17T09:45:28.542Z,17.66
2023-02-17T09:50:54.776Z,17.82
2023-02-17T09:56:02.231Z,17.20
2023-02-17T10:01:16.361Z,17.47
2023-02-17T10:06:26.761Z,16.66
2023-02-17T10:11:35.113Z,18.62
2023-02-17T10:17:27.707Z,17.14
2023-02-17T10:22:33.259Z,16.41
2023-02-17T10:28:08.157Z,15.92
2023-02-17T10:33:23.994Z,18.07
2023-02-17T10:38:52.008Z,17.08
2023-02-17T10:43:56.346Z,16.74
2023-02-17T10:49:00.512Z,15.05
2023-02-17T10:54:08.610Z,16.32
2023-02-17T10:59:24.275Z,15.86
2023-02-17T11:04:27.771Z,16.37
2023-02-17T11:09:34.334Z,16.25
2023-02-17T11:14:38.510Z,16.11
2023-02-17T11:19:41.590Z,15.13
2023-02-17T11:24:45.400Z,15.68
2023-02-17T11:29:48.573Z,14.82
2023-02-17T11:34:58.862Z,14.01
2023-02-17T11:40:17.446Z,14.41
2023-02-17T11:45:23.464Z,15.42
2023-02-17T11:50:42.284Z,14.96
2023-02-17T11:55:59.642Z,14.76
2023-02-17T12:01:47.420Z,14.89
2023-02-17T12:07:13.944Z,15.00
2023-02-17T12:12:59.014Z,14.73
2023-02-17T12:18:24.496Z,13.72
2023-02-17T12:23:54.618Z,13.87
2023-02-17T12:29:12.579Z,13.35
2023-02-17T12:34:37.421Z,13.43
2023-02-17T12:39:50.232Z,13.26
2023-02-17T12:45:00.600Z,13.33
2023-02-17T12:50:36.344Z,13.62
2023-02-17T12:55:49.095Z,13.75
2023-02-17T13:01:09.616Z,14.68
2023-02-17T13:06:43.368Z,14.12
2023-02-17T13:11:46.942Z,14.79
2023-02-17T13:16:50.366Z,13.03
2023-02-17T13:21:56.178Z,13.65
2023-02-17T13:27:12.642Z,14.02
2023-02-17T13:32:15.774Z,14.49
2023-02-17T13:37:40.056Z,14.66
2023-02-17T13:42:48.524Z,15.30
2023-02-17T13:47:54.754Z,15.66
2023-02-17T13:52:57.870Z,15.23
2023-02-17T13:58:01.378Z,15.41
2023-02-17T14:03:18.642Z,14.64
2023-02-17T14:08:48.753Z,14.26
2023-02-17T14:13:54.730Z,15.48
2023-02-17T14:19:04.493Z,15.21
2023-02-17T14:24:11.684Z,14.84
2023-02-17T14:29:16.612Z,13.65
2023-02-17T14:34:29.685Z,13.31
2023-02-17T14:39:33.407Z,13.01
2023-02-17T14:44:36.490Z,12.52
2023-02-17T14:49:39.579Z,12.02
2023-02-17T14:54:43.240Z,12.43
2023-02-17T14:59:46.835Z,12.40
2023-02-17T15:04:49.985Z,11.79
2023-02-17T15:09:53.137Z,11.38
2023-02-17T15:14:56.888Z,11.26
2023-02-17T15:20:00.117Z,11.06
2023-02-17T15:25:03.274Z,10.96
2023-02-17T15:30:12.126Z,10.75
2023-02-17T15:35:24.271Z,10.39
2023-02-17T15:40:28.914Z,10.10
2023-02-17T15:45:35.098Z,9.60
2023-02-17T15:50:38.419Z,9.67
2023-02-17T15:55:42.241Z,9.39
2023-02-17T16:00:50.561Z,9.26
2023-02-17T16:05:54.438Z,8.88
2023-02-17T16:10:57.624Z,8.46
2023-02-17T16:16:01.455Z,8.37
2023-02-17T16:21:04.813Z,8.22
2023-02-17T16:26:31.609Z,8.08
2023-02-17T16:31:37.104Z,7.73
2023-02-17T16:36:40.902Z,7.50
2023-02-17T16:41:45.468Z,7.36
2023-02-17T16:46:50.221Z,7.00
2023-02-17T16:51:54.330Z,6.95
2023-02-17T16:56:59.439Z,6.53
2023-02-17T17:02:03.603Z,6.51
2023-02-17T17:07:06.692Z,6.11
2023-02-17T17:12:11.702Z,5.96
2023-02-17T17:17:14.786Z,5.66
2023-02-17T17:22:18.221Z,5.52
2023-02-17T17:27:21.797Z,5.32
2023-02-17T17:32:25.015Z,5.14
2023-02-17T17:37:28.302Z,4.88
2023-02-17T17:42:32.039Z,4.66
2023-02-17T17:47:35.452Z,4.46
2023-02-17T17:52:38.940Z,4.45
2023-02-17T17:57:42.969Z,4.30
2023-02-17T18:02:46.071Z,4.21
2023-02-17T18:07:50.739Z,4.11
2023-02-17T18:12:54.639Z,4.05
2023-02-17T18:17:57.818Z,3.99
2023-02-17T18:23:01.803Z,3.93
2023-02-17T18:28:05.026Z,3.98
2023-02-17T18:33:08.501Z,3.72
2023-02-17T18:38:12.465Z,4.32
2023-02-17T18:43:17.286Z,4.53
2023-02-17T18:48:20.750Z,4.80
2023-02-17T18:53:24.071Z,5.08
2023-02-17T18:58:27.933Z,5.52
2023-02-17T19:03:31.190Z,5.66
2023-02-17T19:08:34.705Z,5.85
2023-02-17T19:13:38.181Z,6.04
2023-02-17T19:18:43.249Z,6.09
2023-02-17T19:23:47.254Z,6.08
2023-02-17T19:28:51.270Z,6.10
2023-02-17T19:33:57.231Z,6.11
2023-02-17T19:39:00.712Z,6.13
2023-02-17T19:44:04.372Z,6.08
2023-02-17T19:49:08.897Z,6.05
2023-02-17T19:54:11.987Z,5.97
2023-02-17T19:59:15.259Z,6.05
2023-02-17T20:04:20.428Z,5.98
2023-02-17T20:09:24.743Z,5.85
2023-02-17T20:14:28.247Z,5.67
2023-02-17T20:19:32.572Z,5.46
2023-02-17T20:24:37.813Z,5.32
2023-02-17T20:29:41.112Z,5.11
2023-02-17T20:34:44.138Z,4.95
2023-02-17T20:39:47.328Z,4.79
2023-02-17T20:44:53.719Z,4.62
2023-02-17T20:49:57.417Z,4.48
2023-02-17T20:55:01.092Z,4.25
2023-02-17T21:00:06.674Z,3.97
2023-02-17T21:05:10.269Z,3.88
2023-02-17T21:10:20.635Z,3.76
2023-02-17T21:15:24.297Z,3.60
2023-02-17T21:20:28.484Z,3.64
2023-02-17T21:25:31.970Z,3.59
2023-02-17T21:30:35.799Z,3.58
2023-02-17T21:35:39.474Z,3.62
2023-02-17T21:40:43.109Z,3.57
2023-02-17T21:45:46.475Z,3.59
2023-02-17T21:50:49.511Z,3.48
2023-02-17T21:55:53.035Z,3.35
2023-02-17T22:00:56.227Z,3.21
2023-02-17T22:06:00.111Z,2.97
2023-02-17T22:11:03.281Z,3.00
2023-02-17T22:16:07.142Z,2.92
2023-02-17T22:21:13.297Z,2.85
2023-02-17T22:26:19.322Z,2.88
2023-02-17T22:31:25.625Z,2.67
2023-02-17T22:36:31.130Z,2.47
2023-02-17T22:41:36.425Z,2.44
2023-02-17T22:46:39.479Z,2.33
2023-02-17T22:51:42.493Z,2.38
2023-02-17T22:56:45.748Z,2.38
2023-02-17T23:01:49.429Z,2.34
2023-02-17T23:06:52.523Z,2.34
2023-02-17T23:11:57.824Z,2.36
2023-02-17T23:17:12.285Z,2.36
2023-02-17T23:22:18.279Z,2.34
2023-02-17T23:27:21.387Z,2.38
2023-02-17T23:32:24.927Z,2.38
2023-02-17T23:37:27.978Z,2.34
2023-02-17T23:42:31.059Z,2.31
2023-02-17T23:47:34.380Z,2.31
2023-02-17T23:52:37.877Z,2.24
2023-02-17T23:57:41.388Z,2.06
